sensor_id;sensor_type;location;lat;lon;timestamp;P1;durP1;ratioP1;P2;durP2;ratioP2
22622;SDS011;11478;51.094;7.030;2024-01-15T00:01:17;68.10;;;31.02;;
22622;SDS011;11478;51.094;7.030;2024-01-15T00:03:44;71.93;;;30.73;;
22622;SDS011;11478;51.094;7.030;2024-01-15T00:06:09;69.00;;;30.55;;
22622;SDS011;11478;51.094;7.030;2024-01-15T00:08:36;69.15;;;31.88;;
22622;SDS011;11478;51.094;7.030;2024-01-15T00:11:02;65.35;;;29.65;;
22622;SDS011;11478;51.094;7.030;2024-01-15T00:13:35;75.03;;;31.02;;
22622;SDS011;11478;51.094;7.030;2024-01-15T00:16:01;70.32;;;30.00;;
22622;SDS011;11478;51.094;7.030;2024-01-15T00:18:28;72.43;;;32.45;;
22622;SDS011;11478;51.094;7.030;2024-01-15T00:20:54;75.78;;;32.25;;
22622;SDS011;11478;51.094;7.030;2024-01-15T00:23:21;74.38;;;32.38;;
22622;SDS011;11478;51.094;7.030;2024-01-15T00:25:47;74.63;;;33.38;;
22622;SDS011;11478;51.094;7.030;2024-01-15T00:28:15;81.18;;;33.83;;
22622;SDS011;11478;51.094;7.030;2024-01-15T00:30:41;76.80;;;34.92;;
22622;SDS011;11478;51.094;7.030;2024-01-15T00:33:10;87.70;;;35.78;;
22622;SDS011;11478;51.094;7.030;2024-01-15T00:35:38;85.03;;;36.47;;
22622;SDS011;11478;51.094;7.030;2024-01-15T00:38:04;94.22;;;36.72;;
22622;SDS011;11478;51.094;7.030;2024-01-15T00:40:30;82.53;;;35.15;;
22622;SDS011;11478;51.094;7.030;2024-01-15T00:42:56;88.45;;;35.97;;
22622;SDS011;11478;51.094;7.030;2024-01-15T00:45:22;89.22;;;36.25;;
22622;SDS011;11478;51.094;7.030;2024-01-15T00:52:49;77.15;;;33.65;;
22622;SDS011;11478;51.094;7.030;2024-01-15T00:55:15;79.47;;;33.20;;
22622;SDS011;11478;51.094;7.030;2024-01-15T00:57:41;76.75;;;33.40;;
22622;SDS011;11478;51.094;7.030;2024-01-15T01:00:07;82.07;;;33.95;;
22622;SDS011;11478;51.094;7.030;2024-01-15T01:02:36;74.97;;;33.55;;
22622;SDS011;11478;51.094;7.030;2024-01-15T01:05:02;81.63;;;34.90;;
22622;SDS011;11478;51.094;7.030;2024-01-15T01:07:28;84.63;;;35.60;;
22622;SDS011;11478;51.094;7.030;2024-01-15T01:09:54;85.63;;;34.40;;
22622;SDS011;11478;51.094;7.030;2024-01-15T01:12:22;83.20;;;34.65;;
22622;SDS011;11478;51.094;7.030;2024-01-15T01:14:48;79.07;;;33.95;;
22622;SDS011;11478;51.094;7.030;2024-01-15T01:17:15;79.15;;;33.38;;
22622;SDS011;11478;51.094;7.030;2024-01-15T01:19:41;90.43;;;36.50;;
22622;SDS011;11478;51.094;7.030;2024-01-15T01:24:55;85.65;;;34.33;;
22622;SDS011;11478;51.094;7.030;2024-01-15T01:29:50;76.30;;;33.78;;
22622;SDS011;11478;51.094;7.030;2024-01-15T01:32:17;90.70;;;36.13;;
22622;SDS011;11478;51.094;7.030;2024-01-15T01:34:43;75.72;;;33.30;;
22622;SDS011;11478;51.094;7.030;2024-01-15T01:37:11;77.80;;;34.05;;
22622;SDS011;11478;51.094;7.030;2024-01-15T01:39:41;82.03;;;33.60;;
22622;SDS011;11478;51.094;7.030;2024-01-15T01:42:11;78.65;;;33.80;;
22622;SDS011;11478;51.094;7.030;2024-01-15T01:44:37;78.82;;;32.97;;
22622;SDS011;11478;51.094;7.030;2024-01-15T01:47:11;74.78;;;32.58;;
22622;SDS011;11478;51.094;7.030;2024-01-15T01:49:38;70.53;;;32.08;;
22622;SDS011;11478;51.094;7.030;2024-01-15T01:52:12;67.65;;;31.02;;
22622;SDS011;11478;51.094;7.030;2024-01-15T01:54:39;72.20;;;32.97;;
22622;SDS011;11478;51.094;7.030;2024-01-15T01:57:07;77.35;;;32.15;;
22622;SDS011;11478;51.094;7.030;2024-01-15T01:59:34;71.95;;;31.17;;
22622;SDS011;11478;51.094;7.030;2024-01-15T02:02:08;71.82;;;30.65;;
22622;SDS011;11478;51.094;7.030;2024-01-15T02:04:35;72.35;;;32.60;;
22622;SDS011;11478;51.094;7.030;2024-01-15T02:07:05;71.90;;;31.80;;
22622;SDS011;11478;51.094;7.030;2024-01-15T02:09:31;74.07;;;31.73;;
22622;SDS011;11478;51.094;7.030;2024-01-15T02:11:57;69.63;;;32.10;;
22622;SDS011;11478;51.094;7.030;2024-01-15T02:14:23;71.78;;;31.95;;
22622;SDS011;11478;51.094;7.030;2024-01-15T02:16:49;70.70;;;32.10;;
22622;SDS011;11478;51.094;7.030;2024-01-15T02:19:15;78.05;;;30.90;;
22622;SDS011;11478;51.094;7.030;2024-01-15T02:21:49;69.32;;;30.58;;
22622;SDS011;11478;51.094;7.030;2024-01-15T02:24:15;71.97;;;30.45;;
22622;SDS011;11478;51.094;7.030;2024-01-15T02:26:42;76.15;;;31.95;;
22622;SDS011;11478;51.094;7.030;2024-01-15T02:29:08;70.18;;;30.13;;
22622;SDS011;11478;51.094;7.030;2024-01-15T02:31:36;77.47;;;30.83;;
22622;SDS011;11478;51.094;7.030;2024-01-15T02:34:02;69.13;;;30.35;;
22622;SDS011;11478;51.094;7.030;2024-01-15T02:36:29;65.93;;;30.52;;
22622;SDS011;11478;51.094;7.030;2024-01-15T02:38:55;68.50;;;30.33;;
22622;SDS011;11478;51.094;7.030;2024-01-15T02:41:21;60.92;;;28.55;;
22622;SDS011;11478;51.094;7.030;2024-01-15T02:43:47;66.47;;;29.17;;
22622;SDS011;11478;51.094;7.030;2024-01-15T02:46:21;61.67;;;27.40;;
22622;SDS011;11478;51.094;7.030;2024-01-15T02:48:46;65.10;;;30.13;;
22622;SDS011;11478;51.094;7.030;2024-01-15T02:51:12;58.13;;;28.20;;
22622;SDS011;11478;51.094;7.030;2024-01-15T02:53:38;60.05;;;27.65;;
22622;SDS011;11478;51.094;7.030;2024-01-15T02:56:19;63.85;;;29.05;;
22622;SDS011;11478;51.094;7.030;2024-01-15T02:58:52;62.30;;;29.35;;
22622;SDS011;11478;51.094;7.030;2024-01-15T03:01:20;60.70;;;28.37;;
22622;SDS011;11478;51.094;7.030;2024-01-15T03:03:50;66.82;;;27.70;;
22622;SDS011;11478;51.094;7.030;2024-01-15T03:06:16;66.82;;;28.15;;
22622;SDS011;11478;51.094;7.030;2024-01-15T03:08:44;60.30;;;27.58;;
22622;SDS011;11478;51.094;7.030;2024-01-15T03:11:10;61.53;;;28.83;;
22622;SDS011;11478;51.094;7.030;2024-01-15T03:13:50;61.03;;;28.77;;
22622;SDS011;11478;51.094;7.030;2024-01-15T03:16:16;67.45;;;28.98;;
22622;SDS011;11478;51.094;7.030;2024-01-15T03:18:42;55.83;;;27.65;;
22622;SDS011;11478;51.094;7.030;2024-01-15T03:21:08;61.72;;;27.75;;
22622;SDS011;11478;51.094;7.030;2024-01-15T03:23:44;61.45;;;26.65;;
22622;SDS011;11478;51.094;7.030;2024-01-15T03:26:10;56.63;;;25.88;;
22622;SDS011;11478;51.094;7.030;2024-01-15T03:31:05;54.75;;;24.08;;
22622;SDS011;11478;51.094;7.030;2024-01-15T03:33:33;50.40;;;22.48;;
22622;SDS011;11478;51.094;7.030;2024-01-15T03:35:59;44.70;;;22.40;;
22622;SDS011;11478;51.094;7.030;2024-01-15T03:38:28;45.63;;;22.10;;
22622;SDS011;11478;51.094;7.030;2024-01-15T03:40:54;46.70;;;21.90;;
22622;SDS011;11478;51.094;7.030;2024-01-15T03:43:21;49.47;;;22.33;;
22622;SDS011;11478;51.094;7.030;2024-01-15T03:45:46;46.90;;;21.55;;
22622;SDS011;11478;51.094;7.030;2024-01-15T03:48:21;48.55;;;22.95;;
22622;SDS011;11478;51.094;7.030;2024-01-15T03:50:47;48.00;;;22.30;;
22622;SDS011;11478;51.094;7.030;2024-01-15T03:53:24;47.40;;;23.00;;
22622;SDS011;11478;51.094;7.030;2024-01-15T03:55:49;52.10;;;23.93;;
22622;SDS011;11478;51.094;7.030;2024-01-15T03:58:15;51.15;;;23.60;;
22622;SDS011;11478;51.094;7.030;2024-01-15T04:00:42;46.85;;;23.42;;
22622;SDS011;11478;51.094;7.030;2024-01-15T04:03:12;46.40;;;22.42;;
22622;SDS011;11478;51.094;7.030;2024-01-15T04:05:38;49.60;;;24.88;;
22622;SDS011;11478;51.094;7.030;2024-01-15T04:08:04;46.85;;;24.25;;
22622;SDS011;11478;51.094;7.030;2024-01-15T04:10:31;53.50;;;25.08;;
22622;SDS011;11478;51.094;7.030;2024-01-15T04:12:58;44.88;;;22.02;;
22622;SDS011;11478;51.094;7.030;2024-01-15T04:15:25;48.38;;;22.95;;
22622;SDS011;11478;51.094;7.030;2024-01-15T04:17:53;45.78;;;22.75;;
22622;SDS011;11478;51.094;7.030;2024-01-15T04:20:19;50.63;;;22.77;;
22622;SDS011;11478;51.094;7.030;2024-01-15T04:22:53;50.35;;;23.63;;
22622;SDS011;11478;51.094;7.030;2024-01-15T04:25:18;48.28;;;22.67;;
22622;SDS011;11478;51.094;7.030;2024-01-15T04:27:53;41.47;;;22.73;;
22622;SDS011;11478;51.094;7.030;2024-01-15T04:30:19;48.00;;;23.15;;
22622;SDS011;11478;51.094;7.030;2024-01-15T04:32:46;47.35;;;23.83;;
22622;SDS011;11478;51.094;7.030;2024-01-15T04:35:12;47.95;;;23.05;;
22622;SDS011;11478;51.094;7.030;2024-01-15T04:37:45;49.63;;;24.45;;
22622;SDS011;11478;51.094;7.030;2024-01-15T04:40:11;48.75;;;22.67;;
22622;SDS011;11478;51.094;7.030;2024-01-15T04:42:50;48.75;;;21.73;;
22622;SDS011;11478;51.094;7.030;2024-01-15T04:45:15;44.70;;;21.58;;
22622;SDS011;11478;51.094;7.030;2024-01-15T04:50:18;46.05;;;21.70;;
22622;SDS011;11478;51.094;7.030;2024-01-15T04:52:54;43.63;;;21.40;;
22622;SDS011;11478;51.094;7.030;2024-01-15T04:55:20;45.83;;;21.67;;
22622;SDS011;11478;51.094;7.030;2024-01-15T04:57:46;44.08;;;22.23;;
22622;SDS011;11478;51.094;7.030;2024-01-15T05:00:12;43.22;;;21.77;;
22622;SDS011;11478;51.094;7.030;2024-01-15T05:02:54;40.15;;;20.27;;
22622;SDS011;11478;51.094;7.030;2024-01-15T05:05:21;38.17;;;19.48;;
22622;SDS011;11478;51.094;7.030;2024-01-15T05:07:47;38.03;;;19.75;;
22622;SDS011;11478;51.094;7.030;2024-01-15T05:10:13;40.13;;;19.75;;
22622;SDS011;11478;51.094;7.030;2024-01-15T05:12:39;40.10;;;19.63;;
22622;SDS011;11478;51.094;7.030;2024-01-15T05:15:04;38.78;;;18.80;;
22622;SDS011;11478;51.094;7.030;2024-01-15T05:17:31;43.30;;;19.73;;
22622;SDS011;11478;51.094;7.030;2024-01-15T05:19:57;41.33;;;20.40;;
22622;SDS011;11478;51.094;7.030;2024-01-15T05:22:26;36.63;;;18.58;;
22622;SDS011;11478;51.094;7.030;2024-01-15T05:24:52;40.10;;;19.02;;
22622;SDS011;11478;51.094;7.030;2024-01-15T05:30:12;43.70;;;18.42;;
22622;SDS011;11478;51.094;7.030;2024-01-15T05:32:39;37.30;;;17.58;;
22622;SDS011;11478;51.094;7.030;2024-01-15T05:35:05;33.45;;;17.60;;
22622;SDS011;11478;51.094;7.030;2024-01-15T05:37:32;37.05;;;17.58;;
22622;SDS011;11478;51.094;7.030;2024-01-15T05:39:57;37.97;;;17.75;;
22622;SDS011;11478;51.094;7.030;2024-01-15T05:42:24;38.33;;;17.98;;
22622;SDS011;11478;51.094;7.030;2024-01-15T05:44:51;38.45;;;19.08;;
22622;SDS011;11478;51.094;7.030;2024-01-15T05:47:32;35.50;;;17.92;;
22622;SDS011;11478;51.094;7.030;2024-01-15T05:49:58;36.58;;;17.98;;
22622;SDS011;11478;51.094;7.030;2024-01-15T05:52:26;36.13;;;17.08;;
22622;SDS011;11478;51.094;7.030;2024-01-15T05:54:52;37.42;;;17.30;;
22622;SDS011;11478;51.094;7.030;2024-01-15T05:57:25;34.92;;;16.83;;
22622;SDS011;11478;51.094;7.030;2024-01-15T05:59:51;32.85;;;15.48;;
22622;SDS011;11478;51.094;7.030;2024-01-15T06:02:19;32.30;;;16.17;;
22622;SDS011;11478;51.094;7.030;2024-01-15T06:04:45;35.22;;;16.05;;
22622;SDS011;11478;51.094;7.030;2024-01-15T06:07:12;36.95;;;15.52;;
22622;SDS011;11478;51.094;7.030;2024-01-15T06:09:37;34.15;;;15.65;;
22622;SDS011;11478;51.094;7.030;2024-01-15T06:12:04;30.42;;;15.10;;
22622;SDS011;11478;51.094;7.030;2024-01-15T06:14:32;31.20;;;14.70;;
22622;SDS011;11478;51.094;7.030;2024-01-15T06:17:00;27.40;;;14.20;;
22622;SDS011;11478;51.094;7.030;2024-01-15T06:19:26;27.98;;;14.93;;
22622;SDS011;11478;51.094;7.030;2024-01-15T06:21:53;33.72;;;14.57;;
22622;SDS011;11478;51.094;7.030;2024-01-15T06:24:19;28.30;;;14.18;;
22622;SDS011;11478;51.094;7.030;2024-01-15T06:26:54;29.05;;;14.85;;
22622;SDS011;11478;51.094;7.030;2024-01-15T06:29:20;31.95;;;14.32;;
22622;SDS011;11478;51.094;7.030;2024-01-15T06:31:50;30.17;;;15.27;;
22622;SDS011;11478;51.094;7.030;2024-01-15T06:34:16;34.45;;;15.50;;
22622;SDS011;11478;51.094;7.030;2024-01-15T06:36:42;27.55;;;14.32;;
22622;SDS011;11478;51.094;7.030;2024-01-15T06:39:08;23.83;;;13.93;;
22622;SDS011;11478;51.094;7.030;2024-01-15T06:41:36;30.65;;;14.75;;
22622;SDS011;11478;51.094;7.030;2024-01-15T06:44:11;30.05;;;14.85;;
22622;SDS011;11478;51.094;7.030;2024-01-15T06:46:46;24.35;;;14.82;;
22622;SDS011;11478;51.094;7.030;2024-01-15T06:49:12;32.10;;;15.05;;
22622;SDS011;11478;51.094;7.030;2024-01-15T06:51:41;25.20;;;14.63;;
22622;SDS011;11478;51.094;7.030;2024-01-15T06:54:07;31.60;;;15.00;;
22622;SDS011;11478;51.094;7.030;2024-01-15T06:56:46;25.55;;;14.35;;
22622;SDS011;11478;51.094;7.030;2024-01-15T06:59:13;27.10;;;14.13;;
22622;SDS011;11478;51.094;7.030;2024-01-15T07:01:39;26.23;;;13.45;;
22622;SDS011;11478;51.094;7.030;2024-01-15T07:04:06;25.20;;;14.10;;
22622;SDS011;11478;51.094;7.030;2024-01-15T07:06:33;22.60;;;13.40;;
22622;SDS011;11478;51.094;7.030;2024-01-15T07:09:11;23.75;;;13.57;;
22622;SDS011;11478;51.094;7.030;2024-01-15T07:11:37;22.40;;;13.90;;
22622;SDS011;11478;51.094;7.030;2024-01-15T07:14:15;21.55;;;13.25;;
22622;SDS011;11478;51.094;7.030;2024-01-15T07:16:43;25.80;;;14.27;;
22622;SDS011;11478;51.094;7.030;2024-01-15T07:19:08;24.38;;;14.32;;
22622;SDS011;11478;51.094;7.030;2024-01-15T07:21:38;25.23;;;14.32;;
22622;SDS011;11478;51.094;7.030;2024-01-15T07:24:08;29.10;;;15.40;;
22622;SDS011;11478;51.094;7.030;2024-01-15T07:26:40;25.38;;;15.18;;
22622;SDS011;11478;51.094;7.030;2024-01-15T07:29:12;26.70;;;15.77;;
22622;SDS011;11478;51.094;7.030;2024-01-15T07:34:32;34.00;;;17.80;;
22622;SDS011;11478;51.094;7.030;2024-01-15T07:37:00;38.30;;;19.60;;
22622;SDS011;11478;51.094;7.030;2024-01-15T07:39:26;33.40;;;20.40;;
22622;SDS011;11478;51.094;7.030;2024-01-15T07:41:54;35.67;;;19.95;;
22622;SDS011;11478;51.094;7.030;2024-01-15T07:44:20;34.88;;;21.13;;
22622;SDS011;11478;51.094;7.030;2024-01-15T07:46:46;34.15;;;21.52;;
22622;SDS011;11478;51.094;7.030;2024-01-15T07:49:12;36.80;;;22.27;;
22622;SDS011;11478;51.094;7.030;2024-01-15T07:54:08;39.38;;;23.08;;
22622;SDS011;11478;51.094;7.030;2024-01-15T07:59:35;38.10;;;22.60;;
22622;SDS011;11478;51.094;7.030;2024-01-15T08:02:01;36.05;;;22.73;;
22622;SDS011;11478;51.094;7.030;2024-01-15T08:04:28;38.47;;;20.65;;
22622;SDS011;11478;51.094;7.030;2024-01-15T08:06:56;40.28;;;21.20;;
22622;SDS011;11478;51.094;7.030;2024-01-15T08:09:22;41.10;;;21.40;;
22622;SDS011;11478;51.094;7.030;2024-01-15T08:11:50;35.38;;;21.80;;
22622;SDS011;11478;51.094;7.030;2024-01-15T08:14:17;41.28;;;22.95;;
22622;SDS011;11478;51.094;7.030;2024-01-15T08:16:43;42.30;;;25.13;;
22622;SDS011;11478;51.094;7.030;2024-01-15T08:19:22;43.25;;;23.40;;
22622;SDS011;11478;51.094;7.030;2024-01-15T08:22:11;41.97;;;23.88;;
22622;SDS011;11478;51.094;7.030;2024-01-15T08:24:43;47.92;;;25.63;;
22622;SDS011;11478;51.094;7.030;2024-01-15T08:27:12;51.80;;;25.30;;
22622;SDS011;11478;51.094;7.030;2024-01-15T08:29:47;49.63;;;25.67;;
22622;SDS011;11478;51.094;7.030;2024-01-15T08:32:15;46.83;;;26.63;;
22622;SDS011;11478;51.094;7.030;2024-01-15T08:34:43;46.72;;;26.77;;
22622;SDS011;11478;51.094;7.030;2024-01-15T08:37:09;50.85;;;27.15;;
22622;SDS011;11478;51.094;7.030;2024-01-15T08:39:35;51.65;;;27.42;;
22622;SDS011;11478;51.094;7.030;2024-01-15T08:42:04;49.03;;;26.45;;
22622;SDS011;11478;51.094;7.030;2024-01-15T08:44:30;50.63;;;26.65;;
22622;SDS011;11478;51.094;7.030;2024-01-15T08:46:56;54.67;;;26.88;;
22622;SDS011;11478;51.094;7.030;2024-01-15T08:49:26;47.30;;;26.75;;
22622;SDS011;11478;51.094;7.030;2024-01-15T08:51:52;50.13;;;25.73;;
22622;SDS011;11478;51.094;7.030;2024-01-15T08:54:19;45.63;;;24.48;;
22622;SDS011;11478;51.094;7.030;2024-01-15T08:56:45;40.80;;;23.80;;
22622;SDS011;11478;51.094;7.030;2024-01-15T08:59:11;39.10;;;24.02;;
22622;SDS011;11478;51.094;7.030;2024-01-15T09:01:42;38.95;;;22.90;;
22622;SDS011;11478;51.094;7.030;2024-01-15T09:04:08;40.38;;;22.08;;
22622;SDS011;11478;51.094;7.030;2024-01-15T09:06:37;44.58;;;23.40;;
22622;SDS011;11478;51.094;7.030;2024-01-15T09:09:03;38.67;;;21.40;;
22622;SDS011;11478;51.094;7.030;2024-01-15T09:11:32;41.28;;;23.00;;
22622;SDS011;11478;51.094;7.030;2024-01-15T09:13:58;41.83;;;22.60;;
22622;SDS011;11478;51.094;7.030;2024-01-15T09:16:26;40.08;;;23.02;;
22622;SDS011;11478;51.094;7.030;2024-01-15T09:18:52;44.22;;;24.27;;
22622;SDS011;11478;51.094;7.030;2024-01-15T09:21:19;46.03;;;24.77;;
22622;SDS011;11478;51.094;7.030;2024-01-15T09:23:45;49.00;;;24.83;;
22622;SDS011;11478;51.094;7.030;2024-01-15T09:26:11;48.83;;;26.13;;
22622;SDS011;11478;51.094;7.030;2024-01-15T09:28:37;45.70;;;26.73;;
22622;SDS011;11478;51.094;7.030;2024-01-15T09:31:03;50.58;;;26.98;;
22622;SDS011;11478;51.094;7.030;2024-01-15T09:33:28;49.00;;;27.15;;
22622;SDS011;11478;51.094;7.030;2024-01-15T09:36:02;49.60;;;25.83;;
22622;SDS011;11478;51.094;7.030;2024-01-15T09:38:29;47.80;;;26.85;;
22622;SDS011;11478;51.094;7.030;2024-01-15T09:40:58;53.08;;;26.58;;
22622;SDS011;11478;51.094;7.030;2024-01-15T09:43:23;47.58;;;26.77;;
22622;SDS011;11478;51.094;7.030;2024-01-15T09:45:51;58.20;;;30.88;;
22622;SDS011;11478;51.094;7.030;2024-01-15T09:48:18;62.08;;;34.22;;
22622;SDS011;11478;51.094;7.030;2024-01-15T09:50:51;56.35;;;29.48;;
22622;SDS011;11478;51.094;7.030;2024-01-15T09:53:18;76.72;;;39.03;;
22622;SDS011;11478;51.094;7.030;2024-01-15T09:55:46;96.30;;;57.75;;
22622;SDS011;11478;51.094;7.030;2024-01-15T09:58:13;45.10;;;26.27;;
22622;SDS011;11478;51.094;7.030;2024-01-15T10:00:39;48.08;;;25.95;;
22622;SDS011;11478;51.094;7.030;2024-01-15T10:03:09;39.20;;;24.83;;
22622;SDS011;11478;51.094;7.030;2024-01-15T10:05:36;42.63;;;24.38;;
22622;SDS011;11478;51.094;7.030;2024-01-15T10:08:11;40.75;;;22.98;;
22622;SDS011;11478;51.094;7.030;2024-01-15T10:10:37;42.20;;;24.23;;
22622;SDS011;11478;51.094;7.030;2024-01-15T10:13:04;43.17;;;22.10;;
22622;SDS011;11478;51.094;7.030;2024-01-15T10:15:35;38.20;;;22.80;;
22622;SDS011;11478;51.094;7.030;2024-01-15T10:18:09;34.78;;;22.15;;
22622;SDS011;11478;51.094;7.030;2024-01-15T10:20:35;33.70;;;21.45;;
22622;SDS011;11478;51.094;7.030;2024-01-15T10:23:02;43.08;;;25.05;;
22622;SDS011;11478;51.094;7.030;2024-01-15T10:25:29;34.63;;;21.05;;
22622;SDS011;11478;51.094;7.030;2024-01-15T10:28:03;29.73;;;18.42;;
22622;SDS011;11478;51.094;7.030;2024-01-15T10:30:30;31.80;;;20.02;;
22622;SDS011;11478;51.094;7.030;2024-01-15T10:32:58;28.80;;;17.92;;
22622;SDS011;11478;51.094;7.030;2024-01-15T10:35:32;29.67;;;18.08;;
22622;SDS011;11478;51.094;7.030;2024-01-15T10:37:59;27.48;;;16.75;;
22622;SDS011;11478;51.094;7.030;2024-01-15T10:40:26;37.00;;;19.88;;
22622;SDS011;11478;51.094;7.030;2024-01-15T10:43:02;30.02;;;16.42;;
22622;SDS011;11478;51.094;7.030;2024-01-15T10:45:29;21.38;;;13.48;;
22622;SDS011;11478;51.094;7.030;2024-01-15T10:47:56;18.00;;;12.85;;
22622;SDS011;11478;51.094;7.030;2024-01-15T10:50:24;35.78;;;22.58;;
22622;SDS011;11478;51.094;7.030;2024-01-15T10:52:51;19.15;;;13.13;;
22622;SDS011;11478;51.094;7.030;2024-01-15T10:55:18;17.05;;;11.50;;
22622;SDS011;11478;51.094;7.030;2024-01-15T10:57:44;18.35;;;12.57;;
22622;SDS011;11478;51.094;7.030;2024-01-15T11:00:12;125.72;;;43.35;;
22622;SDS011;11478;51.094;7.030;2024-01-15T11:02:40;19.23;;;12.90;;
22622;SDS011;11478;51.094;7.030;2024-01-15T11:05:13;25.25;;;14.95;;
22622;SDS011;11478;51.094;7.030;2024-01-15T11:07:52;21.27;;;12.98;;
22622;SDS011;11478;51.094;7.030;2024-01-15T11:13:23;15.93;;;12.40;;
22622;SDS011;11478;51.094;7.030;2024-01-15T11:16:21;30.40;;;15.52;;
22622;SDS011;11478;51.094;7.030;2024-01-15T11:19:13;28.60;;;16.52;;
22622;SDS011;11478;51.094;7.030;2024-01-15T11:21:41;18.55;;;12.68;;
22622;SDS011;11478;51.094;7.030;2024-01-15T11:24:07;16.58;;;12.15;;
22622;SDS011;11478;51.094;7.030;2024-01-15T11:32:09;17.35;;;10.82;;
22622;SDS011;11478;51.094;7.030;2024-01-15T11:45:53;13.52;;;8.85;;
22622;SDS011;11478;51.094;7.030;2024-01-15T11:48:22;21.73;;;11.48;;
22622;SDS011;11478;51.094;7.030;2024-01-15T11:51:08;27.33;;;13.45;;
22622;SDS011;11478;51.094;7.030;2024-01-15T11:53:44;11.23;;;7.00;;
22622;SDS011;11478;51.094;7.030;2024-01-15T11:56:16;7.97;;;5.90;;
22622;SDS011;11478;51.094;7.030;2024-01-15T11:58:50;15.95;;;8.73;;
22622;SDS011;11478;51.094;7.030;2024-01-15T12:01:16;9.57;;;6.85;;
22622;SDS011;11478;51.094;7.030;2024-01-15T12:03:56;11.15;;;6.63;;
22622;SDS011;11478;51.094;7.030;2024-01-15T12:06:23;12.45;;;7.68;;
22622;SDS011;11478;51.094;7.030;2024-01-15T12:09:05;9.73;;;6.18;;
22622;SDS011;11478;51.094;7.030;2024-01-15T12:11:33;10.35;;;6.38;;
22622;SDS011;11478;51.094;7.030;2024-01-15T12:14:12;12.93;;;6.97;;
22622;SDS011;11478;51.094;7.030;2024-01-15T12:17:00;9.80;;;6.43;;
22622;SDS011;11478;51.094;7.030;2024-01-15T12:19:26;12.82;;;6.95;;
22622;SDS011;11478;51.094;7.030;2024-01-15T12:22:01;9.88;;;6.53;;
22622;SDS011;11478;51.094;7.030;2024-01-15T12:24:32;13.32;;;7.32;;
22622;SDS011;11478;51.094;7.030;2024-01-15T12:27:08;7.72;;;6.18;;
22622;SDS011;11478;51.094;7.030;2024-01-15T12:29:34;11.98;;;6.75;;
22622;SDS011;11478;51.094;7.030;2024-01-15T12:32:04;14.73;;;8.10;;
22622;SDS011;11478;51.094;7.030;2024-01-15T12:34:30;54.97;;;24.17;;
22622;SDS011;11478;51.094;7.030;2024-01-15T12:36:59;13.65;;;8.95;;
22622;SDS011;11478;51.094;7.030;2024-01-15T12:39:26;16.67;;;9.05;;
22622;SDS011;11478;51.094;7.030;2024-01-15T12:44:20;17.13;;;10.55;;
22622;SDS011;11478;51.094;7.030;2024-01-15T12:47:02;20.05;;;11.70;;
22622;SDS011;11478;51.094;7.030;2024-01-15T12:49:31;19.00;;;11.82;;
22622;SDS011;11478;51.094;7.030;2024-01-15T12:54:26;21.75;;;13.60;;
22622;SDS011;11478;51.094;7.030;2024-01-15T12:59:22;24.67;;;13.30;;
22622;SDS011;11478;51.094;7.030;2024-01-15T13:01:48;22.65;;;13.30;;
22622;SDS011;11478;51.094;7.030;2024-01-15T13:06:59;21.85;;;13.18;;
22622;SDS011;11478;51.094;7.030;2024-01-15T13:09:26;19.13;;;11.48;;
22622;SDS011;11478;51.094;7.030;2024-01-15T13:11:51;23.05;;;12.85;;
22622;SDS011;11478;51.094;7.030;2024-01-15T13:14:17;23.13;;;13.02;;
22622;SDS011;11478;51.094;7.030;2024-01-15T13:16:43;17.25;;;10.95;;
22622;SDS011;11478;51.094;7.030;2024-01-15T13:19:09;18.77;;;11.73;;
22622;SDS011;11478;51.094;7.030;2024-01-15T13:21:40;24.15;;;13.68;;
22622;SDS011;11478;51.094;7.030;2024-01-15T13:24:12;22.23;;;10.55;;
22622;SDS011;11478;51.094;7.030;2024-01-15T13:26:43;15.82;;;8.93;;
22622;SDS011;11478;51.094;7.030;2024-01-15T13:29:09;16.05;;;8.45;;
22622;SDS011;11478;51.094;7.030;2024-01-15T13:31:35;23.40;;;12.68;;
22622;SDS011;11478;51.094;7.030;2024-01-15T13:34:01;20.27;;;11.02;;
22622;SDS011;11478;51.094;7.030;2024-01-15T13:36:28;13.90;;;8.10;;
22622;SDS011;11478;51.094;7.030;2024-01-15T13:38:59;25.05;;;12.55;;
22622;SDS011;11478;51.094;7.030;2024-01-15T13:41:26;15.43;;;7.93;;
22622;SDS011;11478;51.094;7.030;2024-01-15T13:43:53;21.15;;;8.02;;
22622;SDS011;11478;51.094;7.030;2024-01-15T13:46:24;11.27;;;7.10;;
22622;SDS011;11478;51.094;7.030;2024-01-15T13:48:55;16.08;;;8.77;;
22622;SDS011;11478;51.094;7.030;2024-01-15T13:51:23;17.45;;;8.55;;
22622;SDS011;11478;51.094;7.030;2024-01-15T13:53:50;16.95;;;9.65;;
22622;SDS011;11478;51.094;7.030;2024-01-15T13:56:26;19.02;;;11.30;;
22622;SDS011;11478;51.094;7.030;2024-01-15T13:58:57;14.95;;;7.82;;
22622;SDS011;11478;51.094;7.030;2024-01-15T14:01:24;19.60;;;7.85;;
22622;SDS011;11478;51.094;7.030;2024-01-15T14:03:56;13.27;;;7.90;;
22622;SDS011;11478;51.094;7.030;2024-01-15T14:06:25;13.88;;;7.13;;
22622;SDS011;11478;51.094;7.030;2024-01-15T14:08:53;14.75;;;6.75;;
22622;SDS011;11478;51.094;7.030;2024-01-15T14:11:19;9.68;;;6.00;;
22622;SDS011;11478;51.094;7.030;2024-01-15T14:13:45;10.70;;;6.72;;
22622;SDS011;11478;51.094;7.030;2024-01-15T14:16:12;13.95;;;6.70;;
22622;SDS011;11478;51.094;7.030;2024-01-15T14:18:44;11.43;;;7.20;;
22622;SDS011;11478;51.094;7.030;2024-01-15T14:21:11;13.05;;;7.07;;
22622;SDS011;11478;51.094;7.030;2024-01-15T14:26:05;10.57;;;7.13;;
22622;SDS011;11478;51.094;7.030;2024-01-15T14:28:47;8.55;;;6.03;;
22622;SDS011;11478;51.094;7.030;2024-01-15T14:31:20;11.82;;;6.70;;
22622;SDS011;11478;51.094;7.030;2024-01-15T14:33:59;12.27;;;7.97;;
22622;SDS011;11478;51.094;7.030;2024-01-15T14:36:30;8.00;;;5.93;;
22622;SDS011;11478;51.094;7.030;2024-01-15T14:38:56;8.73;;;5.22;;
22622;SDS011;11478;51.094;7.030;2024-01-15T14:41:29;7.93;;;5.00;;
22622;SDS011;11478;51.094;7.030;2024-01-15T14:44:01;5.45;;;4.82;;
22622;SDS011;11478;51.094;7.030;2024-01-15T14:46:32;9.40;;;5.20;;
22622;SDS011;11478;51.094;7.030;2024-01-15T14:49:07;7.80;;;5.50;;
22622;SDS011;11478;51.094;7.030;2024-01-15T14:51:39;9.20;;;5.70;;
22622;SDS011;11478;51.094;7.030;2024-01-15T14:56:37;8.00;;;5.45;;
22622;SDS011;11478;51.094;7.030;2024-01-15T14:59:06;7.43;;;5.78;;
22622;SDS011;11478;51.094;7.030;2024-01-15T15:05:02;8.18;;;6.25;;
22622;SDS011;11478;51.094;7.030;2024-01-15T15:07:32;9.45;;;6.22;;
22622;SDS011;11478;51.094;7.030;2024-01-15T15:10:10;9.65;;;5.93;;
22622;SDS011;11478;51.094;7.030;2024-01-15T15:12:36;10.68;;;6.90;;
22622;SDS011;11478;51.094;7.030;2024-01-15T15:15:13;11.65;;;6.40;;
22622;SDS011;11478;51.094;7.030;2024-01-15T15:17:46;10.07;;;6.28;;
22622;SDS011;11478;51.094;7.030;2024-01-15T15:20:18;9.93;;;6.50;;
22622;SDS011;11478;51.094;7.030;2024-01-15T15:22:44;9.23;;;5.72;;
22622;SDS011;11478;51.094;7.030;2024-01-15T15:25:13;10.27;;;6.50;;
22622;SDS011;11478;51.094;7.030;2024-01-15T15:27:39;9.68;;;5.55;;
22622;SDS011;11478;51.094;7.030;2024-01-15T15:30:14;9.55;;;5.50;;
22622;SDS011;11478;51.094;7.030;2024-01-15T15:35:24;8.73;;;5.70;;
22622;SDS011;11478;51.094;7.030;2024-01-15T15:37:56;10.35;;;5.80;;
22622;SDS011;11478;51.094;7.030;2024-01-15T15:40:22;10.55;;;6.07;;
22622;SDS011;11478;51.094;7.030;2024-01-15T15:42:59;9.90;;;6.07;;